Ramla, Israel
Current Conditions -  °F | °C
As of 6:50 AM on Thursday 18 Dec 2014 (Local Time) from LLBG Reporting Station
Clear Clear  
Wind Chill: 54°   Ceiling: Unl
Heat Index: 54°   Visibility: 6mi
Dew Point: 46°   Wind: 1mph
Humidity: 77%   Direction: NA
Pressure: 30.09"   Gusts: NA
Location:  31.93°N, 34.86°E
Report Text: LLBG 180350Z VRB01KT CAVOK 12/08 Q1019 NOSIG
Loading
Personal Weather Stations






























Interactive Weather Map New forecast layout! Learn more

10-Day Weather Forecast

Advertisements
Track Severe Weather on mobile